Flight Track Log - Related Links

Times and Time Zones

All times are in EDT time to prevent confusion due to time zone crossing. See the UAL3827 flight status page for this flight to view local times or setup timezone preferences in your user account.

Time Position Orientation Groundspeed Altitude Reporting Facility
EDT Latitude Longitude Course Direction KTS MPH feet Rate Location/Type
Wed 11:24:04 PM 29.9661 -95.3456 North 139 160 800  Level Houston Center
Wed 11:24:28 PM 29.9542 -95.3542 212° Southwest 166 191 1,700 1,859 Climbing Houston Center
Wed 11:25:15 PM 29.9703 -95.3811 305° West 213 245 3,000 1,967 Climbing Houston Center
Wed 11:25:29 PM 29.9989 -95.3825 358° North 254 292 3,700 984 Climbing Houston Center
Wed 11:26:16 PM 30.0433 -95.3769 North 262 302 4,000 295 Climbing Houston Center
Wed 11:26:30 PM 30.0781 -95.3753 North 284 327 4,000 984 Level Houston Center
Wed 11:27:00 PM 30.3571 -95.5539 334° Northwest  Level FlightAware Approximate
Wed 11:27:17 PM 30.1369 -95.3697 North 275 316 5,000  Level Houston Center
Wed 11:28:00 PM 30.4519 -95.6066 334° Northwest  Level FlightAware Approximate
Wed 11:28:17 PM 30.2128 -95.3814 352° North 285 328 7,500  Level Houston Center
Wed 11:29:00 PM 30.5488 -95.6500 North  Level FlightAware Approximate
Wed 11:29:18 PM 30.2806 -95.4336 326° Northwest 287 330 9,700  Level Houston Center
Wed 11:30:19 PM 30.3492 -95.4931 323° Northwest 300 345 11,300 1,525 Climbing Houston Center
Wed 11:31:20 PM 30.4250 -95.5567 324° Northwest 327 376 12,800 1,525 Climbing Houston Center
Wed 11:32:21 PM 30.5042 -95.6253 323° Northwest 351 404 14,400 1,587 Climbing Houston Center
Wed 11:33:21 PM 30.5903 -95.6803 331° Northwest 353 406 16,000 1,636 Climbing Houston Center
Wed 11:34:22 PM 30.6869 -95.7317 335° Northwest 358 412 17,700 1,525 Climbing Houston Center
Wed 11:35:23 PM 30.7786 -95.7817 335° Northwest 359 413 19,100 1,475 Climbing Houston Center
Wed 11:36:24 PM 30.8711 -95.8317 335° Northwest 362 417 20,700 1,525 Climbing Houston Center
Wed 11:37:25 PM 30.9650 -95.8825 335° Northwest 368 423 22,200 1,488 Climbing Houston Center
Wed 11:38:25 PM 31.0592 -95.9336 335° Northwest 368 423 23,700 1,438 Climbing Houston Center
Wed 11:39:26 PM 31.1558 -95.9811 337° Northwest 370 426 25,100 1,377 Climbing Houston Center
Wed 11:40:27 PM 31.2558 -96.0192 342° North 372 428 26,500 1,388 Climbing Houston Center
Wed 11:41:27 PM 31.3542 -96.0567 342° North 371 427 27,900 1,311 Climbing Houston Center
Wed 11:42:26 PM 31.4489 -96.0931 342° North 375 432 29,100 1,050 Climbing Fort Worth Center
Wed 11:43:27 PM 31.5494 -96.1317 342° North 378 435 30,000 443 Climbing Fort Worth Center
Wed 11:44:28 PM 31.6567 -96.1744 341° North 405 466 30,000  Level Fort Worth Center
Wed 11:45:29 PM 31.7714 -96.2183 342° North 431 496 30,000  Level Fort Worth Center
Wed 11:46:30 PM 31.9022 -96.2706 341° North 451 519 30,000 -148 Level Fort Worth Center
Wed 11:47:31 PM 32.0183 -96.3169 341° North 443 510 29,700 -738 Descending Fort Worth Center
Wed 11:48:32 PM 32.1344 -96.3625 342° North 441 507 28,500 -836 Descending Fort Worth Center
Wed 11:49:33 PM 32.2519 -96.4078 342° North 444 511 28,000 -246 Descending Fort Worth Center
Wed 11:50:34 PM 32.3703 -96.4528 342° North 447 514 28,000  Level Fort Worth Center
Wed 11:51:35 PM 32.4889 -96.4958 343° North 446 513 28,000  Level Fort Worth Center
Wed 11:52:36 PM 32.6325 -96.5494 343° North 447 514 28,000  Level Fort Worth Center
Wed 11:53:37 PM 32.7531 -96.5969 342° North 454 522 28,000  Level Fort Worth Center
Wed 11:54:38 PM 32.8742 -96.6431 342° North 456 525 28,000  Level Fort Worth Center
Wed 11:55:39 PM 32.9958 -96.6875 343° North 460 529 28,000  Level Fort Worth Center
Wed 11:56:40 PM 33.1150 -96.7300 343° North 448 516 28,000  Level Fort Worth Center
Wed 11:57:41 PM 33.2367 -96.7758 343° North 460 529 28,000  Level Fort Worth Center
Wed 11:58:42 PM 33.3567 -96.8236 342° North 459 528 28,000  Level Fort Worth Center
Wed 11:59:43 PM 33.4792 -96.8672 343° North 460 529 28,000  Level Fort Worth Center
Thu 12:00:44 AM 33.5997 -96.9119 343° North 459 528 28,000  Level Fort Worth Center
Thu 12:01:45 AM 33.7439 -96.9661 343° North 457 526 28,000  Level Fort Worth Center
Thu 12:02:45 AM 33.8647 -97.0128 342° North 457 526 28,000  Level Fort Worth Center
Thu 12:03:46 AM 33.9856 -97.0592 342° North 456 525 28,000  Level Fort Worth Center
Thu 12:04:47 AM 34.1103 -97.1064 343° North 455 524 28,000 -639 Level Fort Worth Center
Thu 12:05:48 AM 34.2250 -97.1489 343° North 436 502 26,700 -1,869 Descending Fort Worth Center
Thu 12:06:49 AM 34.3322 -97.1897 343° North 408 470 24,200 -2,459 Descending Fort Worth Center
Thu 12:07:50 AM 34.4339 -97.2325 341° North 386 444 21,700 -2,459 Descending Fort Worth Center
Thu 12:08:51 AM 34.5314 -97.2697 343° North 370 426 19,200 -2,459 Descending Fort Worth Center
Thu 12:09:52 AM 34.6300 -97.3069 343° North 372 428 16,700 -2,615 Descending Fort Worth Center
Thu 12:10:09 AM 34.6686 -97.3186 346° North 377 434 15,800 -2,500 Descending Fort Worth Center
Thu 12:10:52 AM 34.7311 -97.3433 342° North 376 433 14,200 -2,507 Descending Fort Worth Center
Thu 12:11:16 AM 34.7744 -97.3589 344° North 377 434 13,000 -2,361 Descending Fort Worth Center
Thu 12:11:53 AM 34.8289 -97.3817 341° North 371 427 11,800 -1,900 Descending Fort Worth Center
Thu 12:12:16 AM 34.8719 -97.3983 342° North 366 421 11,100 -1,180 Descending Fort Worth Center
Thu 12:12:54 AM 34.9228 -97.4158 344° North 357 411 10,600 -1,164 Descending Fort Worth Center
Thu 12:13:23 AM 34.9756 -97.4189 357° North 306 352 9,800 -1,475 Descending Fort Worth Center
Thu 12:13:55 AM 35.0192 -97.4261 352° North 302 348 9,100 -1,377 Descending Fort Worth Center
Thu 12:14:24 AM 35.0547 -97.4306 354° North 275 316 8,400 -1,475 Descending Fort Worth Center
Thu 12:14:56 AM 35.0986 -97.4364 354° North 290 334 7,600 -1,455 Descending Fort Worth Center
Thu 12:15:30 AM 35.1403 -97.4414 354° North 289 333 6,800 -1,475 Descending Fort Worth Center
Thu 12:15:57 AM 35.1797 -97.4450 356° North 293 337 6,100 -1,527 Descending Fort Worth Center
Thu 12:16:25 AM 35.2172 -97.4486 356° North 297 342 5,400 -1,475 Descending Fort Worth Center
Thu 12:16:58 AM 35.2622 -97.4542 354° North 296 341 4,600 -1,200 Descending Fort Worth Center
Thu 12:17:25 AM 35.3006 -97.4600 353° North 305 351 4,200 -590 Descending Fort Worth Center
Thu 12:17:59 AM 35.3461 -97.4653 355° North 303 349 4,000 -197 Descending Fort Worth Center
Thu 12:18:26 AM 35.3839 -97.4686 356° North 298 343 4,000 -400 Level Fort Worth Center
Thu 12:18:59 AM 35.4292 -97.4764 352° North 278 320 3,600 -764 Descending Fort Worth Center
Thu 12:19:21 AM 35.4506 -97.4803 352° North 255 293 3,300 -590 Descending Fort Worth Center
Thu 12:20:00 AM 35.4806 -97.5097 321° Northwest 222 255 3,000 -300 Descending Fort Worth Center
Thu 12:20:21 AM 35.4822 -97.5367 274° West 191 220 3,000 -295 Level Fort Worth Center
Thu 12:21:01 AM 35.4783 -97.5731 263° West 189 217 2,700 -575 Descending Fort Worth Center
Thu 12:21:34 AM 35.4653 -97.5886 224° Southwest 115 132 2,300 -590 Descending Fort Worth Center
Thu 12:22:02 AM 35.4522 -97.5892 182° South 112 129 2,100 -448 Descending Fort Worth Center
Thu 12:22:41 AM 35.4314 -97.5892 180° South 95 109 1,800 -492 Descending Fort Worth Center
Thu 12:23:03 AM 35.4206 -97.5894 181° South 107 123 1,600 -545 Descending Fort Worth Center

Login

Don't have an account? Register now (free) for customized features, flight alerts, and more!